Time;durP1;ratioP1;P1;durP2;ratioP2;P2;SDS_P1;SDS_P2;PMS_P1;PMS_P2;Temp;Humidity;BMP_temperature;BMP_pressure;BME280_temperature;BME280_humidity;BME280_pressure;Samples;Min_cycle;Max_cycle;Signal;HPM_P1;HPM_P2
2023/10/06 00:01:48;;;;;;;22.63;10.35;;;;;;;17.42;62.16;95893.84;5014060;28;20030;-82
2023/10/06 00:04:15;;;;;;;20.08;9.60;;;;;;;17.16;61.90;95845.34;5012936;28;20044;-82
2023/10/06 00:06:42;;;;;;;20.67;9.43;;;;;;;17.27;62.40;95878.88;5006936;28;20423;-82
2023/10/06 00:09:25;;;;;;;18.27;9.25;;;;;;;17.23;62.41;95858.34;5003804;28;20050;-82
2023/10/06 00:11:52;;;;;;;21.73;9.65;;;;;;;16.85;62.45;95807.63;5003161;28;20066;-78
2023/10/06 00:14:39;;;;;;;22.20;9.68;;;;;;;16.97;62.71;95834.69;5018090;28;20042;-79
2023/10/06 00:17:17;;;;;;;20.33;10.18;;;;;;;17.29;62.82;95889.31;5020887;28;20447;-78
2023/10/06 00:19:52;;;;;;;17.77;9.95;;;;;;;17.30;62.75;95894.38;5011018;28;20046;-79
2023/10/06 00:24:44;;;;;;;24.27;9.07;;;;;;;16.72;63.32;95829.03;5003539;28;20117;-78
2023/10/06 00:27:13;;;;;;;18.88;9.45;;;;;;;16.63;63.88;95834.25;4998336;28;20173;-79
2023/10/06 00:29:43;;;;;;;22.58;10.02;;;;;;;16.73;64.44;95876.94;4991390;28;20038;-79
2023/10/06 00:32:21;;;;;;;20.42;10.07;;;;;;;16.32;64.43;95801.88;5002645;28;20444;-79
2023/10/06 00:34:48;;;;;;;27.00;10.32;;;;;;;16.91;64.26;95886.81;5004272;28;20038;-79
2023/10/06 00:37:15;;;;;;;23.27;9.77;;;;;;;16.30;64.25;95782.63;5002242;28;20046;-79
2023/10/06 00:39:42;;;;;;;21.30;10.35;;;;;;;16.71;64.29;95852.31;5003570;28;20121;-79
2023/10/06 00:42:08;;;;;;;21.50;9.80;;;;;;;16.98;64.08;95892.56;5002864;28;20030;-79
2023/10/06 00:44:35;;;;;;;21.83;10.23;;;;;;;16.88;64.68;95889.25;5001036;28;20073;-79
2023/10/06 00:47:05;;;;;;;25.92;10.88;;;;;;;16.93;64.34;95883.84;4997873;28;20034;-79
2023/10/06 00:49:33;;;;;;;19.40;10.55;;;;;;;16.87;64.65;95898.38;4996441;28;20045;-80
2023/10/06 00:51:59;;;;;;;20.88;9.90;;;;;;;16.61;64.95;95863.25;4995858;28;20496;-79
2023/10/06 00:54:26;;;;;;;19.83;9.68;;;;;;;16.24;64.71;95791.84;5001850;28;20042;-79
2023/10/06 00:56:57;;;;;;;21.63;10.60;;;;;;;16.66;64.77;95857.78;4999487;28;20042;-79
2023/10/06 00:59:24;;;;;;;23.38;10.93;;;;;;;16.87;64.51;95901.88;5000343;28;20039;-79
2023/10/06 01:01:50;;;;;;;21.63;10.15;;;;;;;16.54;64.28;95854.78;4995256;28;20113;-79
2023/10/06 01:04:16;;;;;;;20.98;10.52;;;;;;;16.63;64.08;95850.34;4996636;28;20039;-79
2023/10/06 01:06:42;;;;;;;24.55;10.00;;;;;;;16.49;64.96;95873.56;4998586;28;20034;-79
2023/10/06 01:11:51;;;;;;;20.05;10.35;;;;;;;16.42;64.61;95839.16;4994985;28;20118;-79
2023/10/06 01:14:27;;;;;;;27.58;10.68;;;;;;;16.50;64.33;95832.34;4992687;28;20366;-79
2023/10/06 01:17:14;;;;;;;21.13;9.88;;;;;;;16.85;64.32;95876.47;4997194;28;20046;-79
2023/10/06 01:19:47;;;;;;;20.27;10.65;;;;;;;16.82;64.28;95871.69;5001293;28;20477;-79
2023/10/06 01:22:28;;;;;;;27.63;10.85;;;;;;;16.93;64.17;95886.50;4998179;28;20045;-83
2023/10/06 01:24:54;;;;;;;19.50;10.52;;;;;;;16.91;64.27;95883.31;4980135;28;20082;-84
2023/10/06 01:27:26;;;;;;;20.92;10.30;;;;;;;16.58;63.89;95810.22;4988095;28;20043;-84
2023/10/06 01:30:07;;;;;;;;;;;;;;;16.91;64.07;95889.47;4997218;28;20042;-84
2023/10/06 01:32:33;;;;;;;22.02;11.43;;;;;;;16.69;64.00;95861.78;4991808;28;19918;-78
2023/10/06 01:34:58;;;;;;;29.73;10.65;;;;;;;16.78;64.60;95900.94;4992438;28;20394;-78
2023/10/06 01:37:24;;;;;;;29.15;9.82;;;;;;;16.41;64.54;95848.28;4991751;28;20049;-78
2023/10/06 01:39:51;;;;;;;30.05;11.05;;;;;;;16.51;63.95;95863.38;4991949;28;20046;-78
2023/10/06 01:42:17;;;;;;;24.27;11.40;;;;;;;16.63;64.10;95874.44;4992635;28;20042;-77
2023/10/06 01:44:43;;;;;;;30.65;11.10;;;;;;;16.81;63.80;95905.72;4993103;28;20138;-78
2023/10/06 01:47:09;;;;;;;22.85;11.27;;;;;;;16.98;63.51;95905.16;4991025;28;20046;-77
2023/10/06 01:49:35;;;;;;;24.23;10.95;;;;;;;16.97;63.60;95915.09;4993176;28;20425;-78
2023/10/06 01:52:02;;;;;;;26.75;10.57;;;;;;;17.00;63.27;95910.22;4991184;28;20050;-77
2023/10/06 01:54:34;;;;;;;21.73;11.30;;;;;;;17.04;63.30;95903.19;5004808;28;20129;-78
2023/10/06 01:57:04;;;;;;;25.88;9.43;;;;;;;16.43;62.86;95829.25;4984534;28;20104;-78
2023/10/06 01:59:30;;;;;;;18.25;9.65;;;;;;;16.55;62.97;95878.53;4980445;28;20038;-77
2023/10/06 02:02:00;;;;;;;22.10;10.15;;;;;;;16.74;62.70;95918.72;4992023;28;20039;-78
2023/10/06 02:04:25;;;;;;;17.10;9.65;;;;;;;16.57;63.58;95888.97;4985634;28;20130;-78
2023/10/06 02:06:51;;;;;;;28.80;10.85;;;;;;;16.56;63.47;95906.91;4973817;28;20525;-78
2023/10/06 02:09:20;;;;;;;23.58;10.70;;;;;;;16.81;62.97;95918.31;4983763;28;20209;-78
2023/10/06 02:11:46;;;;;;;20.33;9.00;;;;;;;16.11;63.18;95830.84;4978438;28;20529;-79
2023/10/06 02:14:21;;;;;;;24.30;9.80;;;;;;;16.60;63.09;95893.75;4990732;28;20093;-77
2023/10/06 02:16:48;;;;;;;19.63;9.68;;;;;;;16.77;62.75;95925.38;4988736;28;20046;-78
2023/10/06 02:19:17;;;;;;;21.27;8.68;;;;;;;16.77;62.55;95920.81;5006805;28;20054;-78
2023/10/06 02:21:48;;;;;;;17.08;8.68;;;;;;;16.72;62.59;95899.44;5012843;28;20033;-78
2023/10/06 02:24:17;;;;;;;18.13;9.32;;;;;;;16.79;62.63;95915.13;5031894;28;20550;-77
2023/10/06 02:26:50;;;;;;;20.30;8.90;;;;;;;16.56;62.31;95874.78;5012307;28;20128;-77
2023/10/06 02:29:22;;;;;;;21.15;9.25;;;;;;;16.73;62.22;95909.09;5030983;28;20080;-78
2023/10/06 02:31:51;;;;;;;24.52;9.10;;;;;;;16.77;62.13;95907.41;5030685;28;20042;-77
2023/10/06 02:34:29;;;;;;;24.52;8.70;;;;;;;16.27;61.92;95830.59;5031772;28;20041;-78
2023/10/06 02:36:59;;;;;;;20.25;9.23;;;;;;;16.58;62.49;95893.25;5031356;28;20042;-78
2023/10/06 02:39:28;;;;;;;23.02;9.43;;;;;;;16.84;62.61;95925.78;5012712;28;20041;-78
2023/10/06 02:42:02;;;;;;;22.60;8.68;;;;;;;16.75;62.36;95912.28;5031102;28;20045;-78
2023/10/06 02:44:29;;;;;;;20.02;8.95;;;;;;;16.85;62.34;95930.06;5013352;28;20045;-78
2023/10/06 02:46:55;;;;;;;22.80;8.40;;;;;;;16.17;62.36;95855.66;5013330;28;20415;-78
2023/10/06 02:49:31;;;;;;;25.50;9.10;;;;;;;16.80;62.47;95938.97;5030814;28;20045;-78
2023/10/06 02:52:00;;;;;;;22.67;8.77;;;;;;;16.73;62.34;95943.09;5028875;28;20041;-79
2023/10/06 02:54:29;;;;;;;25.88;8.50;;;;;;;16.70;62.74;95941.03;4986254;28;20436;-79
2023/10/06 02:56:56;;;;;;;16.60;9.27;;;;;;;16.43;62.82;95909.56;5021995;28;20042;-79
2023/10/06 02:59:25;;;;;;;22.27;9.13;;;;;;;16.59;63.07;95940.34;5010286;28;20558;-79
2023/10/06 03:01:57;;;;;;;21.75;9.75;;;;;;;16.65;63.04;95933.84;5038846;28;20029;-78
2023/10/06 03:04:27;;;;;;;22.45;10.10;;;;;;;16.39;63.08;95885.28;5002784;28;20052;-79
2023/10/06 03:06:58;;;;;;;19.95;9.40;;;;;;;16.78;62.59;95932.31;5027277;28;20044;-79
2023/10/06 03:09:38;;;;;;;25.45;8.93;;;;;;;16.29;62.32;95857.88;5022751;28;20515;-79
2023/10/06 03:12:11;;;;;;;20.45;8.75;;;;;;;16.53;62.50;95885.31;5022236;28;20567;-79
2023/10/06 03:14:37;;;;;;;23.85;8.90;;;;;;;16.64;62.68;95885.94;5022405;28;20048;-79
2023/10/06 03:17:11;;;;;;;20.67;8.48;;;;;;;16.53;62.30;95874.59;5037692;28;20041;-79
2023/10/06 03:19:40;;;;;;;19.33;9.32;;;;;;;16.73;61.88;95901.03;5038941;28;20054;-79
2023/10/06 03:22:12;;;;;;;21.67;9.15;;;;;;;16.48;61.93;95886.16;5013041;28;20519;-79
2023/10/06 03:24:53;;;;;;;20.33;8.68;;;;;;;16.63;61.98;95901.22;5009703;28;20049;-78
2023/10/06 03:27:18;;;;;;;22.83;8.45;;;;;;;16.77;61.72;95920.03;5012187;28;20045;-79
2023/10/06 03:30:07;;;;;;;17.27;9.02;;;;;;;16.85;61.50;95924.69;5039115;28;20056;-79
2023/10/06 03:32:38;;;;;;;22.40;9.02;;;;;;;16.64;61.41;95880.59;5022253;28;20107;-79
2023/10/06 03:38:08;;;;;;;16.15;7.78;;;;;;;16.90;61.68;95938.78;5027395;28;20515;-79
2023/10/06 03:40:45;;;;;;;14.98;8.38;;;;;;;16.11;61.70;95822.00;5020561;28;20045;-79
2023/10/06 03:43:14;;;;;;;20.10;8.48;;;;;;;16.98;61.69;95937.31;5022383;28;20034;-79
2023/10/06 03:45:42;;;;;;;15.32;8.38;;;;;;;16.74;61.52;95885.78;5022155;28;20590;-79
2023/10/06 03:48:13;;;;;;;23.60;8.55;;;;;;;16.94;61.60;95936.31;5039540;28;20100;-79
2023/10/06 03:50:41;;;;;;;27.67;10.40;;;;;;;16.62;61.59;95883.56;5039680;28;20052;-79
2023/10/06 03:53:08;;;;;;;20.70;9.27;;;;;;;16.57;61.52;95875.59;5018498;28;20052;-79
2023/10/06 03:55:39;;;;;;;21.17;9.82;;;;;;;17.06;61.32;95941.19;5021338;28;20038;-79
2023/10/06 03:58:10;;;;;;;26.00;10.10;;;;;;;16.90;61.26;95911.19;5016061;28;20051;-79
2023/10/06 04:00:38;;;;;;;21.42;8.95;;;;;;;17.04;61.30;95927.28;5039807;28;20040;-78
2023/10/06 04:03:13;;;;;;;29.00;9.40;;;;;;;16.92;61.63;95917.06;5028718;28;20542;-78
2023/10/06 04:05:41;;;;;;;24.60;10.95;;;;;;;17.11;61.50;95941.09;5009611;28;20057;-78
2023/10/06 04:08:17;;;;;;;25.65;10.05;;;;;;;16.78;61.19;95897.50;5008261;28;20049;-78
2023/10/06 04:10:44;;;;;;;25.75;10.00;;;;;;;16.85;61.54;95912.09;5005621;28;20109;-80
2023/10/06 04:13:10;;;;;;;22.80;10.55;;;;;;;17.00;61.43;95934.34;5023946;28;20467;-78
2023/10/06 04:15:43;;;;;;;27.35;12.10;;;;;;;16.68;61.83;95906.50;5013615;28;20082;-78
2023/10/06 04:18:17;;;;;;;23.83;9.95;;;;;;;16.91;61.66;95942.28;5010923;28;20582;-77
2023/10/06 04:20:44;;;;;;;21.98;9.98;;;;;;;16.59;62.07;95913.56;4981914;28;20152;-77
2023/10/06 04:23:11;;;;;;;24.15;10.75;;;;;;;16.61;62.00;95916.81;4957915;28;20042;-80
2023/10/06 04:25:42;;;;;;;22.80;11.82;;;;;;;16.71;62.00;95938.03;4983620;28;20401;-77
2023/10/06 04:28:09;;;;;;;24.25;11.20;;;;;;;16.76;62.00;95948.69;4980855;28;20046;-78
2023/10/06 04:30:38;;;;;;;35.95;10.65;;;;;;;15.58;62.62;95794.75;4969054;28;20462;-78
2023/10/06 04:33:05;;;;;;;24.67;10.57;;;;;;;15.85;62.56;95871.66;4972501;28;20125;-78
2023/10/06 04:35:34;;;;;;;30.83;10.82;;;;;;;15.68;63.86;95896.22;4965255;28;20077;-81
2023/10/06 04:38:01;;;;;;;25.50;9.80;;;;;;;16.12;63.88;95962.75;4962181;28;20146;-79
2023/10/06 04:40:27;;;;;;;19.60;9.02;;;;;;;15.63;64.17;95894.41;4959968;28;20113;-78
2023/10/06 04:42:53;;;;;;;31.50;11.40;;;;;;;15.72;63.86;95881.97;4984700;28;20153;-78
2023/10/06 04:45:19;;;;;;;30.33;11.57;;;;;;;15.63;63.26;95865.00;4966550;28;20496;-78
2023/10/06 04:47:44;;;;;;;28.90;12.40;;;;;;;15.88;63.33;95901.28;4977731;28;20070;-79
2023/10/06 04:50:11;;;;;;;31.45;10.93;;;;;;;16.28;63.44;95971.34;4974842;28;20400;-78
2023/10/06 04:52:37;;;;;;;27.60;12.05;;;;;;;16.37;63.23;95978.44;4972819;28;20313;-77
2023/10/06 04:55:04;;;;;;;32.22;10.45;;;;;;;16.14;63.09;95937.31;4973754;28;20500;-81
2023/10/06 04:57:30;;;;;;;32.88;10.65;;;;;;;15.97;63.00;95904.91;4970743;28;20056;-79
2023/10/06 04:59:55;;;;;;;28.35;11.32;;;;;;;16.20;62.89;95946.03;4973313;28;20050;-81
2023/10/06 05:02:23;;;;;;;27.25;10.35;;;;;;;16.25;63.05;95969.28;4971781;28;20066;-80
2023/10/06 05:04:53;;;;;;;26.55;11.43;;;;;;;15.93;63.13;95930.66;4960955;28;20490;-80
2023/10/06 05:07:18;;;;;;;31.80;11.95;;;;;;;16.26;62.90;95952.91;4973866;28;20257;-79
2023/10/06 05:09:43;;;;;;;24.33;10.35;;;;;;;16.35;62.57;95961.09;4972202;28;20472;-82
2023/10/06 05:12:14;;;;;;;32.35;12.38;;;;;;;16.63;62.58;95997.63;4958427;28;20510;-81
2023/10/06 05:14:40;;;;;;;30.20;11.50;;;;;;;16.43;62.32;95963.91;4966419;28;20064;-79
2023/10/06 05:17:05;;;;;;;32.25;12.35;;;;;;;16.61;62.50;95991.78;4998556;28;20050;-79
2023/10/06 05:19:34;;;;;;;25.67;12.18;;;;;;;16.33;62.03;95925.75;4986215;28;20058;-80
2023/10/06 05:22:03;;;;;;;33.30;12.70;;;;;;;16.83;62.19;96007.22;4968057;28;20070;-81
2023/10/06 05:24:31;;;;;;;36.35;12.90;;;;;;;16.46;62.41;95970.56;4979842;28;20143;-79
2023/10/06 05:26:56;;;;;;;27.83;12.57;;;;;;;16.38;63.10;95980.03;4976765;28;20168;-79
2023/10/06 05:29:24;;;;;;;53.08;13.73;;;;;;;16.17;62.67;95952.00;4987876;28;20052;-80
2023/10/06 05:31:49;;;;;;;25.38;12.10;;;;;;;16.40;62.61;95987.78;4992019;28;20130;-79
2023/10/06 05:34:17;;;;;;;25.88;12.20;;;;;;;16.01;63.17;95956.75;4991057;28;20062;-79
2023/10/06 05:36:43;;;;;;;29.55;10.30;;;;;;;15.96;63.07;95964.84;4981724;28;20077;-80
2023/10/06 05:39:11;;;;;;;25.40;9.52;;;;;;;15.49;63.37;95890.00;4990086;28;20466;-81
2023/10/06 05:41:40;;;;;;;22.48;8.90;;;;;;;16.15;63.14;96008.47;4981310;28;20051;-80
2023/10/06 05:44:08;;;;;;;15.35;8.38;;;;;;;16.09;63.29;95979.41;4982934;28;20038;-79
2023/10/06 05:46:36;;;;;;;19.60;8.48;;;;;;;15.80;63.81;95984.84;4983596;28;20087;-80
2023/10/06 05:49:03;;;;;;;22.42;8.65;;;;;;;15.98;64.25;96012.72;4987573;28;20070;-79
2023/10/06 05:51:33;;;;;;;15.07;7.90;;;;;;;15.94;64.50;96022.41;4988825;28;20035;-79
2023/10/06 05:53:58;;;;;;;25.17;8.90;;;;;;;15.65;64.78;95975.13;4985315;28;20030;-79
2023/10/06 05:56:26;;;;;;;22.00;7.47;;;;;;;15.60;65.13;96009.94;4985210;28;20136;-81
2023/10/06 05:58:53;;;;;;;15.52;8.68;;;;;;;15.39;65.34;95990.63;4968278;28;20294;-79
2023/10/06 06:01:18;;;;;;;16.90;7.82;;;;;;;15.41;65.12;95967.06;4967987;28;20074;-80
2023/10/06 06:03:45;;;;;;;15.00;7.63;;;;;;;15.55;65.21;95996.66;4975851;28;20124;-78
2023/10/06 06:06:10;;;;;;;15.75;7.82;;;;;;;15.71;65.65;96024.81;4980467;28;20367;-78
2023/10/06 06:08:39;;;;;;;25.55;8.65;;;;;;;15.41;65.56;95972.41;4985050;28;20120;-78
2023/10/06 06:11:05;;;;;;;17.80;7.00;;;;;;;15.60;65.15;95991.22;4970113;28;20509;-78
2023/10/06 06:13:33;;;;;;;19.50;9.35;;;;;;;15.52;65.50;95978.47;4937275;28;20061;-79
2023/10/06 06:15:59;;;;;;;20.92;7.97;;;;;;;15.43;65.21;95970.25;4943842;28;20438;-80
2023/10/06 06:18:27;;;;;;;15.32;7.72;;;;;;;15.73;65.36;96024.50;4964193;28;20198;-78
2023/10/06 06:20:53;;;;;;;24.15;7.50;;;;;;;15.53;65.63;95992.63;5018855;28;20148;-81
2023/10/06 06:23:20;;;;;;;17.83;7.75;;;;;;;15.47;65.77;95999.13;4983764;28;20401;-80
2023/10/06 06:25:45;;;;;;;21.48;8.00;;;;;;;15.95;65.87;96053.41;5013005;28;20132;-81
2023/10/06 06:28:16;;;;;;;19.63;8.25;;;;;;;15.77;66.06;96037.03;4997774;28;20038;-81
2023/10/06 06:30:42;;;;;;;22.27;8.30;;;;;;;15.87;66.25;96054.06;5002883;28;20088;-81
2023/10/06 06:33:12;;;;;;;22.70;8.50;;;;;;;16.03;65.73;96047.41;4993271;28;20323;-80
2023/10/06 06:35:38;;;;;;;19.13;8.07;;;;;;;16.09;65.69;96076.53;4996942;28;20052;-81
2023/10/06 06:38:06;;;;;;;22.30;8.57;;;;;;;16.13;65.46;96056.13;5000517;28;20125;-81
2023/10/06 06:40:33;;;;;;;33.85;9.32;;;;;;;16.15;65.68;96043.25;5013808;28;20041;-81
2023/10/06 06:43:01;;;;;;;18.33;8.93;;;;;;;16.33;64.97;96062.28;4990919;28;20034;-82
2023/10/06 06:45:30;;;;;;;26.50;8.23;;;;;;;16.24;65.06;96056.81;5012382;28;20060;-80
2023/10/06 06:47:56;;;;;;;19.70;8.32;;;;;;;15.84;64.57;95969.81;5015527;28;20045;-79
2023/10/06 06:50:22;;;;;;;18.83;8.38;;;;;;;16.55;64.40;96067.91;4992685;28;20103;-81
2023/10/06 06:52:51;;;;;;;22.80;9.27;;;;;;;16.18;64.49;95988.34;4995660;28;20523;-80
2023/10/06 06:55:17;;;;;;;19.95;8.48;;;;;;;16.81;63.92;96073.69;5003465;28;20053;-78
2023/10/06 06:57:50;;;;;;;22.08;9.35;;;;;;;16.58;63.56;96045.88;5008227;28;20034;-79
2023/10/06 07:00:17;;;;;;;23.08;8.68;;;;;;;16.81;63.84;96069.13;4995663;28;20400;-80
2023/10/06 07:02:44;;;;;;;22.63;9.23;;;;;;;16.87;63.53;96067.16;5010329;28;20415;-80
2023/10/06 07:05:10;;;;;;;32.95;10.50;;;;;;;16.92;63.82;96059.88;4999092;28;20476;-80
2023/10/06 07:07:39;;;;;;;15.00;8.50;;;;;;;16.56;63.08;96003.31;5014845;28;20437;-81
2023/10/06 07:10:06;;;;;;;24.17;8.15;;;;;;;17.01;62.49;96043.13;5012048;28;20061;-81
2023/10/06 07:12:32;;;;;;;18.42;8.10;;;;;;;17.14;62.44;96074.53;4988943;28;20532;-80
2023/10/06 07:14:57;;;;;;;26.65;8.13;;;;;;;17.12;62.27;96065.97;4989719;28;20049;-80
2023/10/06 07:17:24;;;;;;;21.55;8.18;;;;;;;17.06;62.61;96064.47;5009646;28;20577;-80
2023/10/06 07:19:50;;;;;;;26.75;7.93;;;;;;;16.95;62.12;96021.75;5011759;28;20436;-80
2023/10/06 07:22:15;;;;;;;26.70;8.38;;;;;;;17.26;62.33;96061.44;4986600;28;20061;-79
2023/10/06 07:24:41;;;;;;;23.88;9.15;;;;;;;17.45;61.67;96056.03;4993761;28;20532;-80
2023/10/06 07:27:08;;;;;;;19.23;8.07;;;;;;;17.40;61.44;96053.44;4995543;28;20088;-81
2023/10/06 07:29:33;;;;;;;32.17;8.70;;;;;;;17.51;61.47;96062.91;5014644;28;20457;-80
2023/10/06 07:32:00;;;;;;;30.35;9.02;;;;;;;17.29;61.28;96029.50;5014386;28;20050;-77
2023/10/06 07:34:27;;;;;;;20.20;9.00;;;;;;;17.52;60.89;96057.25;5016260;28;20071;-77
2023/10/06 07:36:56;;;;;;;23.00;8.68;;;;;;;17.26;60.77;95989.88;5011975;28;20107;-80
2023/10/06 07:39:21;;;;;;;18.75;8.57;;;;;;;17.56;60.64;96036.78;4996649;28;20079;-77
2023/10/06 07:41:47;;;;;;;18.42;8.75;;;;;;;17.63;60.62;96060.56;5017256;28;20069;-78
2023/10/06 07:44:14;;;;;;;25.17;8.35;;;;;;;17.90;60.02;96070.53;4996638;28;20504;-77
2023/10/06 07:46:41;;;;;;;23.30;8.90;;;;;;;17.51;60.06;96006.59;5018408;28;20037;-78
2023/10/06 07:49:07;;;;;;;27.38;8.32;;;;;;;17.82;60.06;96053.22;5021680;28;20034;-78
2023/10/06 07:51:35;;;;;;;29.52;9.10;;;;;;;17.81;59.71;96035.53;5021874;28;20037;-81
2023/10/06 07:54:01;;;;;;;15.80;7.82;;;;;;;18.25;59.32;96063.66;5008144;28;20072;-77
2023/10/06 07:56:26;;;;;;;25.40;8.95;;;;;;;18.04;58.96;96034.53;4996884;28;20221;-76
2023/10/06 07:58:57;;;;;;;32.22;9.18;;;;;;;18.28;58.51;96055.78;4995496;28;20170;-79
2023/10/06 08:01:22;;;;;;;24.38;9.00;;;;;;;18.00;58.46;96012.06;5007687;28;20045;-81
2023/10/06 08:03:48;;;;;;;25.45;8.52;;;;;;;18.24;58.24;96025.25;4980904;28;20061;-80
2023/10/06 08:06:16;;;;;;;25.00;9.35;;;;;;;18.43;58.37;96060.03;4990249;28;20056;-81
2023/10/06 08:08:41;;;;;;;21.52;8.68;;;;;;;17.91;57.86;95978.19;4998990;28;20053;-81
2023/10/06 08:11:08;;;;;;;19.70;7.72;;;;;;;18.36;57.94;96057.78;4997901;28;20037;-76
2023/10/06 08:13:38;;;;;;;20.38;8.30;;;;;;;18.43;58.25;96046.63;4991465;28;20529;-78
2023/10/06 08:16:06;;;;;;;19.83;7.80;;;;;;;18.29;57.44;96008.25;4993643;28;20110;-78
2023/10/06 08:18:32;;;;;;;25.00;8.73;;;;;;;18.58;57.18;96046.31;4998278;28;20045;-77
2023/10/06 08:21:00;;;;;;;23.80;8.70;;;;;;;18.73;56.90;96053.22;4982801;28;20034;-77
2023/10/06 08:23:28;;;;;;;18.95;8.20;;;;;;;18.58;56.52;96019.44;5000241;28;20037;-77
2023/10/06 08:25:56;;;;;;;26.90;9.50;;;;;;;18.62;56.77;96014.25;4978070;28;20045;-79
2023/10/06 08:28:24;;;;;;;21.13;8.65;;;;;;;18.93;55.91;96044.69;4992299;28;20086;-78
2023/10/06 08:30:50;;;;;;;24.40;8.43;;;;;;;18.97;56.32;96059.13;4979650;28;20069;-81
2023/10/06 08:33:15;;;;;;;23.50;7.80;;;;;;;18.73;56.14;96029.03;4992148;28;20042;-82
2023/10/06 08:35:41;;;;;;;26.08;8.55;;;;;;;18.82;55.87;96035.28;4999654;28;20038;-83
2023/10/06 08:38:07;;;;;;;24.67;8.40;;;;;;;18.53;55.79;95995.38;4985723;28;20042;-82
2023/10/06 08:40:36;;;;;;;22.23;8.82;;;;;;;18.71;56.12;96020.50;5003212;28;20392;-83
2023/10/06 08:43:06;;;;;;;18.38;7.32;;;;;;;18.99;55.64;96061.50;5003109;28;20053;-83
2023/10/06 08:45:32;;;;;;;22.20;9.05;;;;;;;18.79;55.76;96025.13;4992603;28;20049;-82
2023/10/06 08:47:59;;;;;;;19.95;7.90;;;;;;;18.34;55.67;95973.22;4984611;28;20076;-81
2023/10/06 08:50:27;;;;;;;25.95;8.50;;;;;;;18.81;55.62;96037.19;5002923;28;20061;-78
2023/10/06 08:52:55;;;;;;;20.73;8.55;;;;;;;18.93;55.22;96044.69;4968921;28;20439;-80
2023/10/06 08:55:22;;;;;;;24.42;9.95;;;;;;;19.00;55.14;96052.31;4997283;28;20045;-79
2023/10/06 08:57:50;;;;;;;26.38;9.07;;;;;;;18.80;55.85;96035.59;4997540;28;20485;-77
2023/10/06 09:00:17;;;;;;;19.33;8.05;;;;;;;19.05;55.26;96049.53;4989753;28;20061;-79
2023/10/06 09:02:48;;;;;;;20.85;9.18;;;;;;;19.04;54.96;96037.19;4992348;28;20034;-77
2023/10/06 09:05:17;;;;;;;27.83;8.95;;;;;;;19.20;54.51;96049.16;5019909;28;20038;-78
2023/10/06 09:08:11;;;;;;;26.20;8.27;;;;;;;19.23;54.17;96043.94;5010576;28;20037;-77
2023/10/06 09:10:48;;;;;;;22.27;9.20;;;;;;;19.26;53.65;96019.13;4998015;28;20053;-78
2023/10/06 09:13:17;;;;;;;19.10;8.38;;;;;;;19.32;53.44;96021.69;4989964;28;20037;-78
2023/10/06 09:15:55;;;;;;;20.38;8.65;;;;;;;19.31;53.11;96018.19;5019002;28;20037;-78
2023/10/06 09:18:28;;;;;;;18.55;8.93;;;;;;;19.42;52.99;96032.19;4983469;28;20041;-78
2023/10/06 09:20:57;;;;;;;17.70;8.57;;;;;;;19.29;53.04;96009.66;5020914;28;20643;-78
2023/10/06 09:23:32;;;;;;;25.45;10.15;;;;;;;19.36;52.58;96007.34;5010681;28;20056;-77
2023/10/06 09:26:00;;;;;;;18.05;9.23;;;;;;;19.47;52.60;96045.53;4999880;28;20053;-79
2023/10/06 09:28:26;;;;;;;16.92;8.25;;;;;;;18.85;52.97;95960.22;5014539;28;20564;-80
2023/10/06 09:31:00;;;;;;;17.35;10.30;;;;;;;19.12;52.50;96001.50;5013607;28;20033;-80
2023/10/06 09:33:43;;;;;;;16.52;8.23;;;;;;;19.39;52.83;96038.19;4997548;28;20053;-79
2023/10/06 09:36:21;;;;;;;22.50;8.50;;;;;;;19.51;52.60;96028.50;4962471;28;20389;-80
2023/10/06 09:38:47;;;;;;;29.42;9.82;;;;;;;19.36;52.04;95974.25;4972860;28;20126;-81
2023/10/06 09:41:13;;;;;;;14.60;8.10;;;;;;;19.14;51.48;95954.38;4984253;28;20048;-80
2023/10/06 09:43:39;;;;;;;17.48;8.98;;;;;;;19.65;51.73;96007.66;4981482;28;20046;-79
2023/10/06 09:46:13;;;;;;;21.30;8.98;;;;;;;19.69;51.88;96017.78;4973100;28;20042;-77
2023/10/06 09:48:42;;;;;;;20.92;8.60;;;;;;;19.50;51.41;95991.13;5007019;28;20184;-79
2023/10/06 09:51:10;;;;;;;21.20;9.00;;;;;;;19.15;51.29;95949.78;4981385;28;20057;-80
2023/10/06 09:53:43;;;;;;;17.02;7.72;;;;;;;19.42;51.57;95997.22;4996497;28;20424;-79
2023/10/06 09:56:12;;;;;;;23.10;8.75;;;;;;;19.31;51.98;96010.13;4997522;28;20046;-79
2023/10/06 09:58:40;;;;;;;14.20;7.47;;;;;;;19.28;51.81;96000.81;4976780;28;20065;-78
2023/10/06 10:01:06;;;;;;;20.35;8.75;;;;;;;19.55;51.18;96024.06;5002393;28;20045;-78
2023/10/06 10:03:35;;;;;;;18.75;7.97;;;;;;;19.45;51.48;96010.88;4984265;28;20428;-79
2023/10/06 10:06:04;;;;;;;15.68;7.55;;;;;;;19.36;51.14;96011.91;5006731;28;20098;-80
2023/10/06 10:08:32;;;;;;;22.38;8.15;;;;;;;19.31;51.09;96009.34;4974197;28;20037;-80
2023/10/06 10:11:01;;;;;;;16.83;8.32;;;;;;;19.52;51.08;96021.22;4976491;28;20045;-80
2023/10/06 10:13:51;;;;;;;22.70;9.15;;;;;;;19.78;50.07;96026.69;5010821;28;20050;-80
2023/10/06 10:16:41;;;;;;;16.35;8.85;;;;;;;19.79;49.77;96025.59;4994893;28;20116;-79
2023/10/06 10:19:27;;;;;;;14.73;8.73;;;;;;;19.76;49.31;96002.78;5017807;28;20057;-78
2023/10/06 10:21:58;;;;;;;18.92;8.00;;;;;;;19.98;49.17;96018.06;5014612;28;20057;-79
2023/10/06 10:24:25;;;;;;;21.48;8.18;;;;;;;19.56;48.95;95957.59;5011473;28;20464;-80
2023/10/06 10:26:53;;;;;;;20.65;7.88;;;;;;;20.02;48.04;95992.09;5012308;28;20064;-81
2023/10/06 10:29:18;;;;;;;18.70;7.32;;;;;;;20.03;48.09;96020.59;4968073;28;20038;-82
2023/10/06 10:32:15;;;;;;;17.95;7.70;;;;;;;20.07;47.90;96010.78;4989878;28;20402;-78
2023/10/06 10:35:08;;;;;;;16.85;8.45;;;;;;;20.13;47.54;96003.38;5007658;28;20721;-78
2023/10/06 10:37:51;;;;;;;23.60;8.10;;;;;;;19.98;46.87;95978.47;4973574;28;20060;-77
2023/10/06 10:40:22;;;;;;;16.70;7.13;;;;;;;19.55;46.99;95946.03;4984727;28;20040;-77
2023/10/06 10:42:55;;;;;;;22.33;6.90;;;;;;;19.90;46.86;95978.44;4992368;28;20636;-78
2023/10/06 10:45:34;;;;;;;24.15;7.95;;;;;;;19.86;46.85;95980.16;4988013;28;20163;-78
2023/10/06 10:48:04;;;;;;;13.23;7.28;;;;;;;19.89;46.63;95974.97;5009473;28;20102;-77
2023/10/06 10:50:55;;;;;;;25.88;7.63;;;;;;;20.13;46.67;95979.13;5000226;28;20049;-77
2023/10/06 10:53:22;;;;;;;19.90;8.13;;;;;;;19.93;46.94;95962.44;4972129;28;20107;-79
2023/10/06 10:55:48;;;;;;;21.40;7.57;;;;;;;19.51;47.29;95934.31;5008570;28;20033;-78
2023/10/06 10:58:56;;;;;;;18.38;8.02;;;;;;;19.88;47.80;95975.28;5008571;28;20048;-79
2023/10/06 11:01:31;;;;;;;28.48;8.13;;;;;;;20.11;47.21;95968.66;4998506;28;20351;-78
2023/10/06 11:06:55;;;;;;;17.73;7.30;;;;;;;19.90;46.15;95936.19;5015184;28;20055;-77
2023/10/06 11:09:40;;;;;;;16.08;7.28;;;;;;;20.20;45.19;95955.22;4993814;28;20041;-77
2023/10/06 11:12:18;;;;;;;12.23;6.75;;;;;;;20.33;45.03;95954.28;5005970;28;20037;-77
2023/10/06 11:14:45;;;;;;;24.15;7.18;;;;;;;20.45;45.21;95956.34;4983266;28;20498;-79
2023/10/06 11:17:12;;;;;;;12.57;6.40;;;;;;;20.27;45.24;95961.72;5009425;28;20041;-77
2023/10/06 11:19:39;;;;;;;19.45;7.05;;;;;;;20.44;45.24;95952.09;5011936;28;20045;-79
2023/10/06 11:22:22;;;;;;;16.58;6.45;;;;;;;20.32;44.27;95921.16;4978349;28;20156;-77
2023/10/06 11:24:50;;;;;;;12.95;6.35;;;;;;;20.37;44.07;95923.72;4972621;28;20801;-76
2023/10/06 11:27:21;;;;;;;16.45;6.78;;;;;;;20.51;43.84;95955.91;5003883;28;20047;-77
2023/10/06 11:29:48;;;;;;;16.92;7.30;;;;;;;20.52;43.75;95946.69;5012298;28;20143;-76
2023/10/06 11:32:13;;;;;;;22.63;7.22;;;;;;;20.41;43.60;95931.97;5006570;28;20328;-77
2023/10/06 11:34:44;;;;;;;17.85;6.72;;;;;;;20.16;43.97;95901.19;4995365;28;20076;-76
2023/10/06 11:37:10;;;;;;;23.07;6.40;;;;;;;20.46;43.51;95931.78;4985763;28;20041;-77
2023/10/06 11:39:37;;;;;;;12.07;6.30;;;;;;;20.55;43.38;95956.84;5006755;28;20045;-77
2023/10/06 11:42:24;;;;;;;16.05;6.50;;;;;;;20.54;43.20;95952.56;5002303;28;20549;-78
2023/10/06 11:44:53;;;;;;;11.77;6.07;;;;;;;20.35;43.10;95935.94;4970934;28;20055;-77
2023/10/06 11:47:21;;;;;;;15.00;6.90;;;;;;;20.60;43.08;95940.50;4977662;28;20273;-77